createdAt,value
2023-01-14T00:02:08.440Z,88.29
2023-01-14T00:04:38.514Z,88.21
2023-01-14T00:07:08.954Z,88.33
2023-01-14T00:09:42.293Z,88.37
2023-01-14T00:12:14.449Z,88.55
2023-01-14T00:14:43.287Z,88.58
2023-01-14T00:17:11.299Z,88.76
2023-01-14T00:19:38.482Z,88.73
2023-01-14T00:22:09.499Z,89.14
2023-01-14T00:24:38.441Z,89.23
2023-01-14T00:27:05.303Z,89.45
2023-01-14T00:29:39.768Z,89.54
2023-01-14T00:32:07.309Z,89.67
2023-01-14T00:34:34.869Z,89.77
2023-01-14T00:37:02.721Z,89.85
2023-01-14T00:39:30.276Z,89.95
2023-01-14T00:41:58.180Z,90.19
2023-01-14T00:44:27.375Z,90.11
2023-01-14T00:46:54.757Z,90.51
2023-01-14T00:49:25.777Z,90.52
2023-01-14T00:51:56.143Z,90.59
2023-01-14T00:54:28.591Z,90.25
2023-01-14T00:56:59.521Z,90.19
2023-01-14T00:59:29.602Z,90.28
2023-01-14T01:01:59.842Z,90.50
2023-01-14T01:04:27.351Z,90.44
2023-01-14T01:06:56.208Z,90.47
2023-01-14T01:09:23.218Z,90.67
2023-01-14T01:11:51.249Z,90.43
2023-01-14T01:14:18.557Z,90.77
2023-01-14T01:16:47.581Z,90.81
2023-01-14T01:19:15.430Z,90.79
2023-01-14T01:21:42.293Z,91.16
2023-01-14T01:24:10.230Z,91.23
2023-01-14T01:26:37.890Z,91.50
2023-01-14T01:29:08.471Z,91.17
2023-01-14T01:31:35.425Z,90.98
2023-01-14T01:34:05.731Z,91.26
2023-01-14T01:36:36.076Z,91.09
2023-01-14T01:39:05.354Z,90.97
2023-01-14T01:41:42.970Z,91.14
2023-01-14T01:44:19.570Z,91.09
2023-01-14T01:46:49.829Z,91.35
2023-01-14T01:49:19.243Z,91.24
2023-01-14T01:51:59.050Z,91.28
2023-01-14T01:54:30.275Z,91.25
2023-01-14T01:57:00.648Z,91.59
2023-01-14T01:59:32.929Z,91.87
2023-01-14T02:02:00.532Z,92.08
2023-01-14T02:04:27.343Z,91.99
2023-01-14T02:06:57.762Z,92.20
2023-01-14T02:09:31.322Z,92.07
2023-01-14T02:12:30.638Z,92.19
2023-01-14T02:14:58.403Z,92.11
2023-01-14T02:17:33.828Z,92.13
2023-01-14T02:20:21.512Z,92.22
2023-01-14T02:23:13.328Z,92.12
2023-01-14T02:26:00.244Z,91.98
2023-01-14T02:28:50.648Z,92.08
2023-01-14T02:31:31.029Z,91.97
2023-01-14T02:34:18.652Z,92.00
2023-01-14T02:37:24.235Z,91.94
2023-01-14T02:40:02.307Z,92.29
2023-01-14T02:43:00.751Z,92.08
2023-01-14T02:45:51.284Z,92.10
2023-01-14T02:51:05.715Z,92.24
2023-01-14T02:53:33.843Z,92.53
2023-01-14T02:56:02.908Z,92.54
2023-01-14T02:58:51.223Z,92.51
2023-01-14T03:01:58.431Z,92.36
2023-01-14T03:04:48.733Z,92.26
2023-01-14T03:07:29.282Z,92.49
2023-01-14T03:09:56.381Z,92.31
2023-01-14T03:12:35.305Z,92.48
2023-01-14T03:15:11.312Z,92.37
2023-01-14T03:17:55.500Z,92.54
2023-01-14T03:20:27.657Z,92.58
2023-01-14T03:22:56.798Z,92.51
2023-01-14T03:25:24.648Z,92.70
2023-01-14T03:27:57.831Z,92.83
2023-01-14T03:30:30.523Z,92.99
2023-01-14T03:33:03.868Z,92.95
2023-01-14T03:35:41.218Z,92.98
2023-01-14T03:38:15.386Z,93.17
2023-01-14T03:40:43.249Z,93.11
2023-01-14T03:43:32.230Z,93.24
2023-01-14T03:45:59.482Z,93.34
2023-01-14T03:48:26.726Z,93.37
2023-01-14T03:51:32.077Z,93.40
2023-01-14T03:54:07.511Z,93.57
2023-01-14T03:57:12.743Z,93.62
2023-01-14T03:59:54.416Z,93.39
2023-01-14T04:02:23.692Z,93.39
2023-01-14T04:04:51.040Z,93.50
2023-01-14T04:07:17.847Z,93.37
2023-01-14T04:09:44.616Z,93.53
2023-01-14T04:12:11.396Z,93.54
2023-01-14T04:14:56.844Z,93.45
2023-01-14T04:17:25.076Z,93.63
2023-01-14T04:19:51.974Z,93.71
2023-01-14T04:22:18.875Z,93.45
2023-01-14T04:24:45.577Z,93.56
2023-01-14T04:27:12.499Z,93.65
2023-01-14T04:29:39.253Z,93.38
2023-01-14T04:32:05.987Z,93.67
2023-01-14T04:34:32.674Z,93.56
2023-01-14T04:36:59.424Z,93.61
2023-01-14T04:39:26.087Z,93.63
2023-01-14T04:42:11.308Z,93.52
2023-01-14T04:44:38.168Z,93.25
2023-01-14T04:47:04.855Z,93.59
2023-01-14T04:49:31.683Z,93.55
2023-01-14T04:51:58.367Z,93.28
2023-01-14T04:54:25.190Z,93.30
2023-01-14T04:56:51.947Z,93.42
2023-01-14T04:59:18.726Z,93.18
2023-01-14T05:01:45.608Z,93.33
2023-01-14T05:04:12.655Z,93.44
2023-01-14T05:06:39.388Z,93.30
2023-01-14T05:09:06.173Z,93.21
2023-01-14T05:11:32.867Z,93.32
2023-01-14T05:13:59.663Z,93.01
2023-01-14T05:16:28.318Z,92.96
2023-01-14T05:18:55.557Z,93.25
2023-01-14T05:21:22.668Z,93.17
2023-01-14T05:23:49.540Z,93.22
2023-01-14T05:26:16.205Z,93.33
2023-01-14T05:28:43.008Z,93.16
2023-01-14T05:31:09.823Z,93.18
2023-01-14T05:33:36.735Z,93.46
2023-01-14T05:36:04.047Z,93.44
2023-01-14T05:38:30.948Z,93.60
2023-01-14T05:40:57.815Z,93.41
2023-01-14T05:43:43.140Z,93.60
2023-01-14T05:46:13.918Z,93.59
2023-01-14T05:48:40.775Z,93.53
2023-01-14T05:51:07.996Z,93.59
2023-01-14T05:53:34.766Z,93.26
2023-01-14T05:56:01.730Z,93.43
2023-01-14T05:58:28.730Z,93.54
2023-01-14T06:01:14.061Z,93.55
2023-01-14T06:04:00.864Z,93.42
2023-01-14T06:06:32.722Z,93.60
2023-01-14T06:09:22.622Z,93.40
2023-01-14T06:12:03.846Z,93.35
2023-01-14T06:14:35.273Z,93.16
2023-01-14T06:17:13.327Z,93.52
2023-01-14T06:19:41.672Z,93.50
2023-01-14T06:22:08.757Z,93.36
2023-01-14T06:24:36.979Z,93.17
2023-01-14T06:27:08.034Z,93.39
2023-01-14T06:29:35.740Z,93.38
2023-01-14T06:32:03.781Z,93.33
2023-01-14T06:34:30.742Z,93.09
2023-01-14T06:36:57.750Z,93.29
2023-01-14T06:39:27.074Z,93.09
2023-01-14T06:41:55.784Z,93.21
2023-01-14T06:44:25.161Z,93.08
2023-01-14T06:46:55.157Z,93.03
2023-01-14T06:49:25.220Z,93.48
2023-01-14T06:51:52.894Z,93.49
2023-01-14T06:54:19.818Z,93.43
2023-01-14T06:56:48.387Z,93.49
2023-01-14T06:59:16.787Z,93.83
2023-01-14T07:01:43.650Z,93.85
2023-01-14T07:04:10.721Z,93.92
2023-01-14T07:06:41.981Z,94.12
2023-01-14T07:09:09.888Z,94.06
2023-01-14T07:11:36.754Z,94.40
2023-01-14T07:14:04.544Z,94.22
2023-01-14T07:16:32.265Z,94.59
2023-01-14T07:18:59.811Z,94.51
2023-01-14T07:21:27.517Z,94.45
2023-01-14T07:23:54.757Z,94.46
2023-01-14T07:26:47.368Z,94.67
2023-01-14T07:29:15.810Z,94.61
2023-01-14T07:31:42.859Z,94.87
2023-01-14T07:34:09.736Z,94.69
2023-01-14T07:36:36.414Z,94.71
2023-01-14T07:39:03.471Z,94.94
2023-01-14T07:41:30.219Z,95.05
2023-01-14T07:43:56.996Z,95.22
2023-01-14T07:46:23.667Z,95.04
2023-01-14T07:48:50.446Z,95.22
2023-01-14T07:51:21.759Z,95.10
2023-01-14T07:53:49.176Z,95.10
2023-01-14T07:56:15.846Z,95.23
2023-01-14T07:58:42.827Z,95.26
2023-01-14T08:01:10.427Z,95.30
2023-01-14T08:03:38.400Z,95.54
2023-01-14T08:06:06.257Z,96.16
2023-01-14T08:08:34.456Z,96.42
2023-01-14T08:11:01.608Z,96.72
2023-01-14T08:13:28.886Z,96.69
2023-01-14T08:15:55.964Z,96.87
2023-01-14T08:18:22.767Z,96.72
2023-01-14T08:20:49.496Z,96.81
2023-01-14T08:23:16.238Z,96.63
2023-01-14T08:25:42.927Z,96.64
2023-01-14T08:28:09.724Z,96.74
2023-01-14T08:30:36.444Z,96.58
2023-01-14T08:33:03.306Z,96.60
2023-01-14T08:35:30.035Z,96.62
2023-01-14T08:37:56.807Z,96.71
2023-01-14T08:40:24.630Z,96.76
2023-01-14T08:42:51.445Z,96.85
2023-01-14T08:45:18.343Z,96.63
2023-01-14T08:47:45.373Z,96.58
2023-01-14T08:50:12.248Z,96.67
2023-01-14T08:52:39.133Z,96.41
2023-01-14T08:55:06.140Z,96.64
2023-01-14T08:57:32.916Z,97.05
2023-01-14T08:59:59.586Z,97.17
2023-01-14T09:02:26.512Z,97.45
2023-01-14T09:04:53.248Z,97.51
2023-01-14T09:07:38.502Z,97.78
2023-01-14T09:10:24.293Z,97.66
2023-01-14T09:13:09.779Z,97.67
2023-01-14T09:15:55.399Z,97.38
2023-01-14T09:18:22.276Z,97.24
2023-01-14T09:20:49.245Z,97.17
2023-01-14T09:23:15.996Z,97.29
2023-01-14T09:25:42.677Z,97.31
2023-01-14T09:28:09.616Z,97.06
2023-01-14T09:30:36.290Z,97.21
2023-01-14T09:33:06.018Z,97.05
2023-01-14T09:35:33.009Z,96.82
2023-01-14T09:37:59.694Z,97.11
2023-01-14T09:40:26.534Z,97.25
2023-01-14T09:42:53.260Z,97.66
2023-01-14T09:45:40.292Z,97.70
2023-01-14T09:48:12.873Z,97.71
2023-01-14T09:50:39.630Z,97.73
2023-01-14T09:53:11.735Z,97.77
2023-01-14T09:55:42.046Z,97.89
2023-01-14T09:58:15.344Z,97.42
2023-01-14T10:00:55.366Z,97.21
2023-01-14T10:03:28.692Z,97.32
2023-01-14T10:06:01.404Z,96.77
2023-01-14T10:08:32.438Z,97.09
2023-01-14T10:11:03.975Z,96.94
2023-01-14T10:13:33.778Z,96.67
2023-01-14T10:16:10.274Z,96.55
2023-01-14T10:18:44.789Z,96.76
2023-01-14T10:21:32.032Z,96.51
2023-01-14T10:23:59.384Z,96.51
2023-01-14T10:26:35.368Z,96.69
2023-01-14T10:29:25.330Z,96.79
2023-01-14T10:31:56.295Z,96.93
2023-01-14T10:34:27.203Z,96.90
2023-01-14T10:36:55.686Z,96.69
2023-01-14T10:39:23.349Z,96.46
2023-01-14T10:41:54.234Z,96.69
2023-01-14T10:44:47.176Z,96.35
2023-01-14T10:47:16.947Z,96.94
2023-01-14T10:50:02.240Z,97.12
2023-01-14T10:52:34.804Z,97.05
2023-01-14T10:55:19.907Z,96.81
2023-01-14T10:58:10.048Z,96.63
2023-01-14T11:01:04.062Z,96.42
2023-01-14T11:03:38.920Z,96.16
2023-01-14T11:06:08.057Z,95.81
2023-01-14T11:08:39.547Z,95.70
2023-01-14T11:11:06.290Z,95.64
2023-01-14T11:13:43.811Z,95.45
2023-01-14T11:16:22.926Z,95.44
2023-01-14T11:18:51.355Z,95.21
2023-01-14T11:21:21.617Z,95.13
2023-01-14T11:23:59.147Z,95.41
2023-01-14T11:26:26.067Z,95.45
2023-01-14T11:28:54.107Z,95.68
2023-01-14T11:31:29.118Z,96.00
2023-01-14T11:33:56.659Z,96.07
2023-01-14T11:36:24.668Z,96.06
2023-01-14T11:38:52.184Z,95.75
2023-01-14T11:41:38.708Z,95.48
2023-01-14T11:44:17.644Z,95.24
2023-01-14T11:46:45.697Z,95.09
2023-01-14T11:49:20.493Z,95.00
2023-01-14T11:51:57.305Z,94.96
2023-01-14T11:54:24.439Z,94.83
2023-01-14T11:56:51.287Z,94.58
2023-01-14T11:59:28.187Z,94.78
2023-01-14T12:01:58.037Z,94.26
2023-01-14T12:04:27.102Z,94.34
2023-01-14T12:07:00.397Z,93.89
2023-01-14T12:09:36.060Z,94.14
2023-01-14T12:12:05.650Z,93.95
2023-01-14T12:14:54.759Z,93.70
2023-01-14T12:17:27.407Z,93.50
2023-01-14T12:19:59.009Z,93.50
2023-01-14T12:22:30.465Z,93.67
2023-01-14T12:24:59.970Z,93.79
2023-01-14T12:27:43.945Z,93.72
2023-01-14T12:30:13.500Z,93.28
2023-01-14T12:32:44.418Z,93.58
2023-01-14T12:35:14.425Z,93.15
2023-01-14T12:37:56.128Z,93.01
2023-01-14T12:40:53.657Z,92.79
2023-01-14T12:43:41.374Z,91.67
2023-01-14T12:46:10.738Z,90.20
2023-01-14T12:48:37.796Z,89.32
2023-01-14T12:51:04.741Z,88.02
2023-01-14T12:53:34.557Z,88.27
2023-01-14T12:56:02.828Z,88.99
2023-01-14T12:58:31.803Z,89.97
2023-01-14T13:01:00.894Z,90.81
2023-01-14T13:03:33.731Z,91.08
2023-01-14T13:06:12.284Z,91.10
2023-01-14T13:08:39.404Z,91.06
2023-01-14T13:11:13.523Z,90.89
2023-01-14T13:13:42.825Z,90.37
2023-01-14T13:16:28.384Z,90.05
2023-01-14T13:18:59.414Z,89.96
2023-01-14T13:21:45.038Z,89.66
2023-01-14T13:24:46.067Z,88.92
2023-01-14T13:27:31.330Z,88.57
2023-01-14T13:30:16.446Z,88.69
2023-01-14T13:33:01.251Z,89.50
2023-01-14T13:35:29.218Z,89.82
2023-01-14T13:37:57.629Z,90.06
2023-01-14T13:40:26.163Z,89.45
2023-01-14T13:43:19.949Z,88.76
2023-01-14T13:45:51.211Z,86.54
2023-01-14T13:48:24.118Z,86.38
2023-01-14T13:50:51.081Z,86.83
2023-01-14T13:53:17.774Z,86.23
2023-01-14T13:55:53.992Z,86.21
2023-01-14T13:58:41.010Z,85.71
2023-01-14T14:01:28.117Z,86.08
2023-01-14T14:04:03.169Z,86.74
2023-01-14T14:06:31.278Z,87.11
2023-01-14T14:09:01.048Z,88.05
2023-01-14T14:11:29.668Z,89.12
2023-01-14T14:14:05.776Z,89.56
2023-01-14T14:16:38.925Z,89.87
2023-01-14T14:19:11.735Z,89.88
2023-01-14T14:21:41.699Z,89.59
2023-01-14T14:24:16.748Z,89.73
2023-01-14T14:26:43.744Z,89.70
2023-01-14T14:29:25.437Z,89.79
2023-01-14T14:31:53.877Z,89.78
2023-01-14T14:34:23.830Z,90.21
2023-01-14T14:36:55.584Z,90.29
2023-01-14T14:39:29.346Z,90.30
2023-01-14T14:41:57.204Z,90.32
2023-01-14T14:44:25.205Z,90.43
2023-01-14T14:46:52.538Z,90.60
2023-01-14T14:49:19.292Z,90.70
2023-01-14T14:51:47.669Z,91.08
2023-01-14T14:54:34.107Z,91.16
2023-01-14T14:57:28.379Z,91.08
2023-01-14T15:00:11.802Z,91.49
2023-01-14T15:02:41.090Z,91.61
2023-01-14T15:05:10.254Z,91.61
2023-01-14T15:07:41.558Z,92.07
2023-01-14T15:10:14.565Z,92.66
2023-01-14T15:12:42.785Z,92.80
2023-01-14T15:15:40.575Z,93.12
2023-01-14T15:18:31.613Z,93.35
2023-01-14T15:20:59.072Z,93.60
2023-01-14T15:23:27.188Z,93.57
2023-01-14T15:25:55.068Z,93.63
2023-01-14T15:28:23.074Z,94.11
2023-01-14T15:31:00.879Z,94.33
2023-01-14T15:33:33.103Z,94.22
2023-01-14T15:36:00.617Z,94.25
2023-01-14T15:38:30.664Z,94.53
2023-01-14T15:40:59.986Z,94.34
2023-01-14T15:43:29.265Z,94.59
2023-01-14T15:46:09.382Z,94.59
2023-01-14T15:48:46.360Z,94.80
2023-01-14T15:51:14.466Z,94.76
2023-01-14T15:53:44.764Z,95.04
2023-01-14T15:56:23.214Z,94.89
2023-01-14T15:58:56.945Z,94.96
2023-01-14T16:01:28.345Z,94.99
2023-01-14T16:03:56.964Z,95.10
2023-01-14T16:06:30.558Z,95.24
2023-01-14T16:09:00.009Z,95.54
2023-01-14T16:11:41.841Z,95.59
2023-01-14T16:14:24.043Z,95.87
2023-01-14T16:16:51.550Z,95.74
2023-01-14T16:19:19.697Z,96.12
2023-01-14T16:21:46.628Z,96.03
2023-01-14T16:24:17.808Z,96.00
2023-01-14T16:26:47.373Z,96.21
2023-01-14T16:29:14.665Z,96.58
2023-01-14T16:31:42.804Z,96.42
2023-01-14T16:34:09.614Z,96.68
2023-01-14T16:36:38.866Z,96.81
2023-01-14T16:39:17.746Z,96.67
2023-01-14T16:41:45.929Z,96.70
2023-01-14T16:44:13.056Z,97.01
2023-01-14T16:46:39.856Z,97.10
2023-01-14T16:49:10.736Z,97.05
2023-01-14T16:51:42.153Z,96.94
2023-01-14T16:54:16.986Z,97.05
2023-01-14T16:56:44.840Z,97.05
2023-01-14T16:59:13.266Z,97.26
2023-01-14T17:01:47.348Z,97.37
2023-01-14T17:04:17.532Z,97.34
2023-01-14T17:06:45.453Z,97.37
2023-01-14T17:09:13.672Z,97.22
2023-01-14T17:11:59.225Z,97.16
2023-01-14T17:14:29.087Z,97.27
2023-01-14T17:16:57.240Z,97.33
2023-01-14T17:19:27.407Z,97.37
2023-01-14T17:21:55.643Z,97.69
2023-01-14T17:24:22.704Z,97.60
2023-01-14T17:26:52.880Z,97.92
2023-01-14T17:29:20.797Z,97.80
2023-01-14T17:31:48.751Z,98.04
2023-01-14T17:34:15.779Z,97.87
2023-01-14T17:36:45.801Z,97.90
2023-01-14T17:39:12.763Z,97.87
2023-01-14T17:41:58.394Z,98.07
2023-01-14T17:44:25.263Z,97.89
2023-01-14T17:46:52.707Z,98.05
2023-01-14T17:49:21.684Z,98.05
2023-01-14T17:51:48.995Z,98.18
2023-01-14T17:54:16.107Z,98.46
2023-01-14T17:56:44.005Z,98.38
2023-01-14T17:59:13.520Z,98.41
2023-01-14T18:01:41.224Z,98.59
2023-01-14T18:04:10.756Z,98.35
2023-01-14T18:06:38.569Z,98.47
2023-01-14T18:09:05.987Z,98.53
2023-01-14T18:11:34.180Z,98.64
2023-01-14T18:14:01.767Z,98.73
2023-01-14T18:16:28.925Z,98.60
2023-01-14T18:18:55.888Z,98.83
2023-01-14T18:21:22.872Z,98.55
2023-01-14T18:23:51.186Z,98.79
2023-01-14T18:26:23.479Z,98.49
2023-01-14T18:28:56.242Z,98.72
2023-01-14T18:31:25.304Z,98.95
2023-01-14T18:33:55.107Z,98.75
2023-01-14T18:36:24.416Z,98.82
2023-01-14T18:38:52.630Z,99.04
2023-01-14T18:41:21.755Z,98.88
2023-01-14T18:43:48.656Z,98.85
2023-01-14T18:46:17.030Z,99.03
2023-01-14T18:48:45.231Z,98.73
2023-01-14T18:51:14.662Z,98.80
2023-01-14T18:53:42.471Z,99.03
2023-01-14T18:56:12.026Z,99.11
2023-01-14T18:58:41.141Z,98.95
2023-01-14T19:01:10.637Z,99.06
2023-01-14T19:03:39.201Z,99.20
2023-01-14T19:06:07.736Z,99.27
2023-01-14T19:08:34.676Z,99.30
2023-01-14T19:11:02.791Z,99.33
2023-01-14T19:13:30.359Z,99.44
2023-01-14T19:16:06.301Z,99.41
2023-01-14T19:18:33.209Z,99.43
2023-01-14T19:21:00.959Z,99.26
2023-01-14T19:23:27.812Z,99.33
2023-01-14T19:25:54.578Z,99.30
2023-01-14T19:28:22.906Z,99.24
2023-01-14T19:30:50.033Z,99.50
2023-01-14T19:33:17.028Z,99.33
2023-01-14T19:35:43.729Z,99.14
2023-01-14T19:38:11.848Z,99.13
2023-01-14T19:40:40.974Z,99.27
2023-01-14T19:43:08.733Z,99.31
2023-01-14T19:45:38.504Z,99.44
2023-01-14T19:48:06.094Z,99.42
2023-01-14T19:50:33.104Z,99.32
2023-01-14T19:53:01.451Z,99.09
2023-01-14T19:55:29.024Z,99.16
2023-01-14T19:57:58.724Z,99.04
2023-01-14T20:00:25.993Z,99.32
2023-01-14T20:02:52.873Z,99.41
2023-01-14T20:05:20.175Z,99.13
2023-01-14T20:07:48.447Z,99.20
2023-01-14T20:10:15.358Z,99.31
2023-01-14T20:12:42.407Z,99.34
2023-01-14T20:15:09.692Z,99.28
2023-01-14T20:17:37.146Z,99.46
2023-01-14T20:20:04.368Z,99.64
2023-01-14T20:22:31.938Z,99.50
2023-01-14T20:24:58.732Z,99.32
2023-01-14T20:27:27.039Z,99.43
2023-01-14T20:29:54.085Z,99.34
2023-01-14T20:32:20.864Z,99.46
2023-01-14T20:34:47.604Z,99.50
2023-01-14T20:37:14.487Z,99.62
2023-01-14T20:39:41.162Z,99.53
2023-01-14T20:42:18.180Z,99.54
2023-01-14T20:45:01.111Z,99.45
2023-01-14T20:47:31.837Z,99.89
2023-01-14T20:49:58.646Z,99.72
2023-01-14T20:52:26.054Z,99.62
2023-01-14T20:54:55.049Z,99.55
2023-01-14T20:57:24.813Z,99.64
2023-01-14T20:59:53.058Z,99.57
2023-01-14T21:02:20.385Z,99.83
2023-01-14T21:04:47.300Z,99.67
2023-01-14T21:07:14.009Z,99.94
2023-01-14T21:09:45.127Z,100.00
2023-01-14T21:12:13.215Z,99.83
2023-01-14T21:14:58.553Z,99.74
2023-01-14T21:17:44.172Z,99.50
2023-01-14T21:20:33.779Z,99.72
2023-01-14T21:23:08.226Z,99.52
2023-01-14T21:25:36.021Z,99.54
2023-01-14T21:28:04.249Z,99.37
2023-01-14T21:30:35.523Z,99.34
2023-01-14T21:33:03.667Z,99.33
2023-01-14T21:35:30.733Z,99.16
2023-01-14T21:37:57.789Z,99.14
2023-01-14T21:40:25.903Z,99.12
2023-01-14T21:43:11.535Z,99.19
2023-01-14T21:45:57.031Z,99.00
2023-01-14T21:48:25.025Z,98.97
2023-01-14T21:50:51.929Z,99.05
2023-01-14T21:53:19.432Z,99.07
2023-01-14T21:55:47.857Z,98.91
2023-01-14T21:58:15.548Z,99.03
2023-01-14T22:00:43.212Z,99.14
2023-01-14T22:03:10.570Z,98.88
2023-01-14T22:05:37.444Z,98.88
2023-01-14T22:08:05.261Z,98.77
2023-01-14T22:10:32.509Z,99.01
2023-01-14T22:13:01.303Z,98.69
2023-01-14T22:15:28.292Z,98.99
2023-01-14T22:17:55.116Z,98.87
2023-01-14T22:20:21.934Z,98.86
2023-01-14T22:22:48.775Z,99.16
2023-01-14T22:25:15.516Z,99.13
2023-01-14T22:27:42.351Z,99.15
2023-01-14T22:30:11.103Z,99.28
2023-01-14T22:32:38.877Z,99.48
2023-01-14T22:35:06.080Z,99.51
2023-01-14T22:37:32.882Z,99.46
2023-01-14T22:39:59.543Z,99.30
2023-01-14T22:42:26.379Z,99.46
2023-01-14T22:44:53.135Z,99.59
2023-01-14T22:47:19.972Z,99.34
2023-01-14T22:49:46.727Z,99.19
2023-01-14T22:52:15.304Z,99.10
2023-01-14T22:54:42.103Z,98.99
2023-01-14T22:57:09.107Z,99.22
2023-01-14T22:59:37.217Z,98.82
2023-01-14T23:02:06.866Z,98.98
2023-01-14T23:04:33.839Z,98.86
2023-01-14T23:07:10.651Z,99.01
2023-01-14T23:09:38.352Z,99.09
2023-01-14T23:12:09.895Z,99.04
2023-01-14T23:14:36.969Z,99.10
2023-01-14T23:17:22.334Z,99.33
2023-01-14T23:19:49.227Z,99.18
2023-01-14T23:22:34.566Z,99.29
2023-01-14T23:25:01.947Z,99.09
2023-01-14T23:27:28.890Z,99.19
2023-01-14T23:29:55.800Z,99.54
2023-01-14T23:32:22.507Z,99.26
2023-01-14T23:34:49.298Z,99.60
2023-01-14T23:37:16.088Z,99.51
2023-01-14T23:39:43.452Z,99.29
2023-01-14T23:42:26.603Z,99.47
2023-01-14T23:44:57.287Z,99.21
2023-01-14T23:47:24.084Z,99.27
2023-01-14T23:49:50.845Z,99.27
2023-01-14T23:52:17.777Z,99.01
2023-01-14T23:54:44.608Z,98.89
2023-01-14T23:57:13.784Z,98.96
2023-01-14T23:59:40.752Z,98.97
